Time,TemperatureF,DewpointF,PressureIn,WindDirection,WindDirectionDegrees,WindSpeedMPH,WindSpeedGustMPH,Humidity,HourlyPrecipIn,Conditions,Clouds,dailyrainin,SoftwareType,DateUTC
2013-11-19 00:02:00,37.1,28.2,30.96,West,270,10.0,12.0,70,0.00,CLR,CLR,0.00,WeatherDisplay:10.37,2013-11-19 05:02:00,
2013-11-19 00:07:00,37.1,28.3,30.96,West,263,7.0,12.0,70,0.00,CLR,CLR,0.00,WeatherDisplay:10.37,2013-11-19 05:07:00,
2013-11-19 00:12:00,37.1,28.3,30.96,West,269,5.0,12.0,70,0.00,CLR,CLR,0.00,WeatherDisplay:10.37,2013-11-19 05:12:00,
2013-11-19 00:17:00,37.2,28.3,30.96,West,274,7.0,14.0,70,0.00,CLR,CLR,0.00,WeatherDisplay:10.37,2013-11-19 05:17:00,
2013-11-19 00:22:00,37.2,28.0,30.96,West,272,7.0,12.0,69,0.00,CLR,CLR,0.00,WeatherDisplay:10.37,2013-11-19 05:22:00,
2013-11-19 00:27:00,37.2,28.3,30.96,West,268,7.0,10.0,70,0.00,CLR,CLR,0.00,WeatherDisplay:10.37,2013-11-19 05:27:00,
2013-11-19 00:32:00,37.2,28.0,30.96,West,279,8.0,10.0,69,0.00,CLR,CLR,0.00,WeatherDisplay:10.37,2013-11-19 05:32:00,
2013-11-19 00:37:00,37.3,28.1,30.96,WNW,283,3.0,10.0,69,0.00,CLR,CLR,0.00,WeatherDisplay:10.37,2013-11-19 05:37:00,
2013-11-19 00:42:00,37.3,28.1,30.96,West,276,5.0,9.0,69,0.00,CLR,CLR,0.00,WeatherDisplay:10.37,2013-11-19 05:42:00,
2013-11-19 00:47:00,37.3,28.1,30.97,West,281,8.0,14.0,69,0.00,CLR,CLR,0.00,WeatherDisplay:10.37,2013-11-19 05:47:00,
2013-11-19 00:52:00,37.3,28.4,30.97,West,278,5.0,13.0,70,0.00,CLR,CLR,0.00,WeatherDisplay:10.37,2013-11-19 05:52:00,
2013-11-19 00:57:00,37.3,28.1,30.97,West,269,5.0,12.0,69,0.00,CLR,CLR,0.00,WeatherDisplay:10.37,2013-11-19 05:57:00,
2013-11-19 01:02:00,37.3,28.8,30.97,West,277,5.0,9.0,71,0.00,CLR,CLR,0.00,WeatherDisplay:10.37,2013-11-19 06:02:00,
2013-11-19 01:07:00,37.3,28.8,30.97,West,280,5.0,8.0,71,0.00,CLR,CLR,0.00,WeatherDisplay:10.37,2013-11-19 06:07:00,
2013-11-19 01:12:00,37.3,28.4,30.97,WNW,300,6.0,9.0,70,0.00,CLR,CLR,0.00,WeatherDisplay:10.37,2013-11-19 06:12:00,
2013-11-19 01:17:00,37.3,28.8,30.97,WNW,285,3.0,9.0,71,0.00,CLR,CLR,0.00,WeatherDisplay:10.37,2013-11-19 06:17:00,
2013-11-19 01:22:00,37.4,28.8,30.98,West,277,7.0,12.0,71,0.00,CLR,CLR,0.00,WeatherDisplay:10.37,2013-11-19 06:22:00,
2013-11-19 01:27:00,37.4,28.8,30.98,WNW,282,5.0,13.0,71,0.00,CLR,CLR,0.00,WeatherDisplay:10.37,2013-11-19 06:27:00,
2013-11-19 01:32:00,37.4,28.8,30.98,WNW,295,3.0,8.0,71,0.00,CLR,CLR,0.00,WeatherDisplay:10.37,2013-11-19 06:32:00,
2013-11-19 01:37:00,37.4,29.2,30.98,WNW,299,3.0,7.0,72,0.00,CLR,CLR,0.00,WeatherDisplay:10.37,2013-11-19 06:37:00,
2013-11-19 01:42:00,37.3,29.1,30.99,WNW,286,3.0,8.0,72,0.00,CLR,CLR,0.00,WeatherDisplay:10.37,2013-11-19 06:42:00,
2013-11-19 01:47:00,37.3,29.1,30.99,WNW,288,5.0,9.0,72,0.00,CLR,CLR,0.00,WeatherDisplay:10.37,2013-11-19 06:47:00,
2013-11-19 01:52:00,37.3,28.8,30.99,NW,304,2.0,7.0,71,0.00,CLR,CLR,0.00,WeatherDisplay:10.37,2013-11-19 06:52:00,
2013-11-19 01:57:00,37.3,28.0,30.99,WNW,292,6.0,14.0,69,0.00,CLR,CLR,0.00,WeatherDisplay:10.37,2013-11-19 06:57:00,
2013-11-19 02:02:00,37.3,28.0,30.99,WNW,284,3.0,8.0,69,0.00,CLR,CLR,0.00,WeatherDisplay:10.37,2013-11-19 07:02:00,
2013-11-19 02:07:00,37.2,28.0,30.99,WNW,286,5.0,8.0,69,0.00,CLR,CLR,0.00,WeatherDisplay:10.37,2013-11-19 07:07:00,
2013-11-19 02:12:00,37.2,27.2,30.99,NW,312,5.0,12.0,67,0.00,CLR,CLR,0.00,WeatherDisplay:10.37,2013-11-19 07:12:00,
2013-11-19 02:17:00,37.2,27.2,30.99,NW,321,2.0,5.0,67,0.00,CLR,CLR,0.00,WeatherDisplay:10.37,2013-11-19 07:17:00,
2013-11-19 02:22:00,37.1,27.2,31.00,WNW,290,2.0,6.0,67,0.00,CLR,CLR,0.00,WeatherDisplay:10.37,2013-11-19 07:22:00,
2013-11-19 02:27:00,37.1,26.8,31.00,WNW,287,2.0,16.0,66,0.00,CLR,CLR,0.00,WeatherDisplay:10.37,2013-11-19 07:27:00,
2013-11-19 02:32:00,37.1,26.8,31.00,NNW,329,1.0,9.0,66,0.00,CLR,CLR,0.00,WeatherDisplay:10.37,2013-11-19 07:32:00,
2013-11-19 02:37:00,37.1,26.8,31.00,NNW,337,0.0,5.0,66,0.00,CLR,CLR,0.00,WeatherDisplay:10.37,2013-11-19 07:37:00,
2013-11-19 02:42:00,37.1,27.1,31.00,NW,318,2.0,6.0,67,0.00,CLR,CLR,0.00,WeatherDisplay:10.37,2013-11-19 07:42:00,
2013-11-19 02:47:00,37.1,26.8,31.00,NW,308,1.0,6.0,66,0.00,CLR,CLR,0.00,WeatherDisplay:10.37,2013-11-19 07:47:00,
2013-11-19 02:52:00,37.1,26.8,31.00,NW,307,3.0,7.0,66,0.00,CLR,CLR,0.00,WeatherDisplay:10.37,2013-11-19 07:52:00,
2013-11-19 02:57:00,37.1,27.2,31.00,NW,319,0.0,5.0,67,0.00,CLR,CLR,0.00,WeatherDisplay:10.37,2013-11-19 07:57:00,
2013-11-19 03:02:00,37.1,26.8,31.01,NW,306,3.0,7.0,66,0.00,CLR,CLR,0.00,WeatherDisplay:10.37,2013-11-19 08:02:00,
2013-11-19 03:07:00,37.1,26.8,31.01,WNW,294,0.0,6.0,66,0.00,CLR,CLR,0.00,WeatherDisplay:10.37,2013-11-19 08:07:00,
2013-11-19 03:12:00,37.1,26.8,31.01,WNW,289,3.0,9.0,66,0.00,CLR,CLR,0.00,WeatherDisplay:10.37,2013-11-19 08:12:00,
2013-11-19 03:17:00,37.1,27.2,31.01,WNW,297,2.0,12.0,67,0.00,CLR,CLR,0.00,WeatherDisplay:10.37,2013-11-19 08:17:00,
2013-11-19 03:22:00,37.1,27.2,31.02,NW,322,3.0,7.0,67,0.00,CLR,CLR,0.00,WeatherDisplay:10.37,2013-11-19 08:22:00,
2013-11-19 03:27:00,37.1,27.6,31.02,NW,310,2.0,6.0,68,0.00,CLR,CLR,0.00,WeatherDisplay:10.37,2013-11-19 08:27:00,
2013-11-19 03:32:00,37.1,27.5,31.02,WNW,282,6.0,9.0,68,0.00,CLR,CLR,0.00,WeatherDisplay:10.37,2013-11-19 08:32:00,
2013-11-19 03:37:00,37.2,28.0,31.02,WNW,303,5.0,9.0,69,0.00,CLR,CLR,0.00,WeatherDisplay:10.37,2013-11-19 08:37:00,
2013-11-19 03:42:00,37.2,27.6,31.02,NW,317,3.0,10.0,68,0.00,CLR,CLR,0.00,WeatherDisplay:10.37,2013-11-19 08:42:00,
2013-11-19 03:47:00,37.2,27.2,31.02,NW,307,2.0,8.0,67,0.00,CLR,CLR,0.00,WeatherDisplay:10.37,2013-11-19 08:47:00,
2013-11-19 03:52:00,37.2,27.6,31.02,WNW,293,3.0,7.0,68,0.00,CLR,CLR,0.00,WeatherDisplay:10.37,2013-11-19 08:52:00,
2013-11-19 03:57:00,37.2,28.0,31.03,WNW,282,1.0,8.0,69,0.00,CLR,CLR,0.00,WeatherDisplay:10.37,2013-11-19 08:57:00,
2013-11-19 04:02:00,37.2,28.0,31.03,WNW,285,3.0,7.0,69,0.00,CLR,CLR,0.00,WeatherDisplay:10.37,2013-11-19 09:02:00,
2013-11-19 04:07:00,37.2,27.6,31.03,WNW,291,6.0,12.0,68,0.00,CLR,CLR,0.00,WeatherDisplay:10.37,2013-11-19 09:07:00,
2013-11-19 04:12:00,37.2,27.6,31.03,WNW,297,6.0,12.0,68,0.00,CLR,CLR,0.00,WeatherDisplay:10.37,2013-11-19 09:12:00,
2013-11-19 04:17:00,37.2,27.2,31.04,WNW,292,7.0,13.0,67,0.00,CLR,CLR,0.00,WeatherDisplay:10.37,2013-11-19 09:17:00,
2013-11-19 04:22:00,37.1,27.2,31.04,WNW,286,3.0,8.0,67,0.00,CLR,CLR,0.00,WeatherDisplay:10.37,2013-11-19 09:22:00,
2013-11-19 04:27:00,37.1,27.2,31.04,NW,304,1.0,8.0,67,0.00,CLR,CLR,0.00,WeatherDisplay:10.37,2013-11-19 09:27:00,
2013-11-19 04:32:00,37.1,27.5,31.04,NW,320,5.0,12.0,68,0.00,CLR,CLR,0.00,WeatherDisplay:10.37,2013-11-19 09:32:00,
2013-11-19 04:37:00,37.0,27.4,31.04,NW,314,5.0,12.0,68,0.00,CLR,CLR,0.00,WeatherDisplay:10.37,2013-11-19 09:37:00,
2013-11-19 04:42:00,37.0,27.8,31.04,WNW,283,6.0,12.0,69,0.00,CLR,CLR,0.00,WeatherDisplay:10.37,2013-11-19 09:42:00,
2013-11-19 04:47:00,36.9,27.7,31.05,WNW,285,5.0,8.0,69,0.00,CLR,CLR,0.00,WeatherDisplay:10.37,2013-11-19 09:47:00,
2013-11-19 04:52:00,36.9,27.7,31.05,WNW,296,5.0,7.0,69,0.00,CLR,CLR,0.00,WeatherDisplay:10.37,2013-11-19 09:52:00,
2013-11-19 04:57:00,36.8,27.6,31.05,West,281,5.0,12.0,69,0.00,CLR,CLR,0.00,WeatherDisplay:10.37,2013-11-19 09:57:00,
2013-11-19 05:02:00,36.8,27.6,31.05,WNW,294,3.0,12.0,69,0.00,CLR,CLR,0.00,WeatherDisplay:10.37,2013-11-19 10:02:00,
2013-11-19 05:07:00,36.8,27.6,31.05,NW,306,5.0,12.0,69,0.00,CLR,CLR,0.00,WeatherDisplay:10.37,2013-11-19 10:07:00,
2013-11-19 05:12:00,36.8,27.6,31.05,NW,311,3.0,9.0,69,0.00,CLR,CLR,0.00,WeatherDisplay:10.37,2013-11-19 10:12:00,
2013-11-19 05:17:00,36.7,27.9,31.05,NW,305,3.0,6.0,70,0.00,CLR,CLR,0.00,WeatherDisplay:10.37,2013-11-19 10:17:00,
2013-11-19 05:22:00,36.7,27.8,31.06,NW,320,2.0,9.0,70,0.00,CLR,CLR,0.00,WeatherDisplay:10.37,2013-11-19 10:22:00,
2013-11-19 05:27:00,36.6,27.7,31.06,NNW,330,2.0,6.0,70,0.00,CLR,CLR,0.00,WeatherDisplay:10.37,2013-11-19 10:27:00,
2013-11-19 05:32:00,36.6,27.4,31.06,NW,318,3.0,8.0,69,0.00,CLR,CLR,0.00,WeatherDisplay:10.37,2013-11-19 10:32:00,
2013-11-19 05:37:00,36.6,27.7,31.06,NW,309,5.0,12.0,70,0.00,CLR,CLR,0.00,WeatherDisplay:10.37,2013-11-19 10:37:00,
2013-11-19 05:42:00,36.6,27.7,31.06,NW,309,3.0,8.0,70,0.00,CLR,CLR,0.00,WeatherDisplay:10.37,2013-11-19 10:42:00,
2013-11-19 05:47:00,36.5,27.6,31.06,WNW,300,3.0,7.0,70,0.00,CLR,CLR,0.00,WeatherDisplay:10.37,2013-11-19 10:47:00,
2013-11-19 05:52:00,36.5,27.6,31.06,WNW,291,2.0,5.0,70,0.00,CLR,CLR,0.00,WeatherDisplay:10.37,2013-11-19 10:52:00,
2013-11-19 05:57:00,36.4,27.5,31.06,WNW,296,5.0,8.0,70,0.00,CLR,CLR,0.00,WeatherDisplay:10.37,2013-11-19 10:57:00,
2013-11-19 06:02:00,36.4,27.2,31.07,NW,304,1.0,7.0,69,0.00,CLR,CLR,0.00,WeatherDisplay:10.37,2013-11-19 11:02:00,
2013-11-19 06:07:00,36.4,27.5,31.07,NW,308,1.0,4.0,70,0.00,CLR,CLR,0.00,WeatherDisplay:10.37,2013-11-19 11:07:00,
2013-11-19 06:12:00,36.4,27.5,31.07,WNW,302,2.0,4.0,70,0.00,CLR,CLR,0.00,WeatherDisplay:10.37,2013-11-19 11:12:00,
2013-11-19 06:17:00,36.4,27.5,31.08,WNW,298,2.0,4.0,70,0.00,CLR,CLR,0.00,WeatherDisplay:10.37,2013-11-19 11:17:00,
2013-11-19 06:22:00,36.3,27.5,31.08,NW,305,2.0,6.0,70,0.00,CLR,CLR,0.00,WeatherDisplay:10.37,2013-11-19 11:22:00,
2013-11-19 06:27:00,36.4,27.5,31.08,NW,315,1.0,5.0,70,0.00,CLR,CLR,0.00,WeatherDisplay:10.37,2013-11-19 11:27:00,
2013-11-19 06:32:00,36.4,27.5,31.08,NW,323,2.0,6.0,70,0.00,CLR,CLR,0.00,WeatherDisplay:10.37,2013-11-19 11:32:00,
2013-11-19 06:37:00,36.4,27.9,31.08,NNW,335,0.0,5.0,71,0.00,CLR,CLR,0.00,WeatherDisplay:10.37,2013-11-19 11:37:00,
2013-11-19 06:42:00,36.4,27.5,31.08,NNW,335,1.0,9.0,70,0.00,CLR,CLR,0.00,WeatherDisplay:10.37,2013-11-19 11:42:00,
2013-11-19 06:47:00,36.4,27.8,31.09,NW,326,2.0,6.0,71,0.00,CLR,CLR,0.00,WeatherDisplay:10.37,2013-11-19 11:47:00,
2013-11-19 06:52:00,36.4,27.5,31.09,WNW,301,3.0,7.0,70,0.00,CLR,CLR,0.00,WeatherDisplay:10.37,2013-11-19 11:52:00,
2013-11-19 06:57:00,36.4,27.9,31.09,WNW,297,5.0,8.0,71,0.00,CLR,CLR,0.00,WeatherDisplay:10.37,2013-11-19 11:57:00,
2013-11-19 07:02:00,36.4,27.9,31.10,NW,315,2.0,7.0,71,0.00,CLR,CLR,0.00,WeatherDisplay:10.37,2013-11-19 12:02:00,
2013-11-19 07:07:00,36.4,27.9,31.10,WNW,301,3.0,9.0,71,0.00,CLR,CLR,0.00,WeatherDisplay:10.37,2013-11-19 12:07:00,
2013-11-19 07:12:00,36.4,27.9,31.10,WNW,282,1.0,4.0,71,0.00,CLR,CLR,0.00,WeatherDisplay:10.37,2013-11-19 12:12:00,
2013-11-19 07:17:00,36.4,27.9,31.10,WNW,289,2.0,8.0,71,0.00,CLR,CLR,0.00,WeatherDisplay:10.37,2013-11-19 12:17:00,
2013-11-19 07:22:00,36.4,27.9,31.10,WNW,294,0.0,8.0,71,0.00,CLR,CLR,0.00,WeatherDisplay:10.37,2013-11-19 12:22:00,
2013-11-19 07:27:00,36.4,28.2,31.11,WNW,297,2.0,8.0,72,0.00,CLR,CLR,0.00,WeatherDisplay:10.37,2013-11-19 12:27:00,
2013-11-19 07:32:00,36.4,28.2,31.11,WNW,296,2.0,5.0,72,0.00,CLR,CLR,0.00,WeatherDisplay:10.37,2013-11-19 12:32:00,
2013-11-19 07:37:00,36.4,28.2,31.11,NW,308,3.0,8.0,72,0.00,CLR,CLR,0.00,WeatherDisplay:10.37,2013-11-19 12:37:00,
2013-11-19 07:42:00,36.4,28.6,31.11,NW,305,5.0,8.0,73,0.00,CLR,CLR,0.00,WeatherDisplay:10.37,2013-11-19 12:42:00,
2013-11-19 07:47:00,36.4,28.2,31.11,NW,315,3.0,12.0,72,0.00,CLR,CLR,0.00,WeatherDisplay:10.37,2013-11-19 12:47:00,
2013-11-19 07:52:00,36.4,28.2,31.12,NW,310,5.0,12.0,72,0.00,CLR,CLR,0.00,WeatherDisplay:10.37,2013-11-19 12:52:00,
2013-11-19 07:57:00,36.4,28.5,31.12,West,280,5.0,6.0,73,0.00,CLR,CLR,0.00,WeatherDisplay:10.37,2013-11-19 12:57:00,
2013-11-19 08:02:00,36.4,28.2,31.12,WNW,298,2.0,8.0,72,0.00,CLR,CLR,0.00,WeatherDisplay:10.37,2013-11-19 13:02:00,
2013-11-19 08:07:00,36.3,28.5,31.12,WNW,303,3.0,6.0,73,0.00,CLR,CLR,0.00,WeatherDisplay:10.37,2013-11-19 13:07:00,
2013-11-19 08:12:00,36.4,28.6,31.12,WNW,295,6.0,15.0,73,0.00,CLR,CLR,0.00,WeatherDisplay:10.37,2013-11-19 13:12:00,
2013-11-19 08:17:00,36.4,28.5,31.13,WNW,290,3.0,10.0,73,0.00,CLR,CLR,0.00,WeatherDisplay:10.37,2013-11-19 13:17:00,
2013-11-19 08:22:00,36.4,28.6,31.13,WNW,293,7.0,13.0,73,0.00,CLR,CLR,0.00,WeatherDisplay:10.37,2013-11-19 13:22:00,
2013-11-19 08:27:00,36.4,28.6,31.13,WNW,298,5.0,12.0,73,0.00,CLR,CLR,0.00,WeatherDisplay:10.37,2013-11-19 13:27:00,
2013-11-19 08:32:00,36.4,28.6,31.14,WNW,297,2.0,9.0,73,0.00,CLR,CLR,0.00,WeatherDisplay:10.37,2013-11-19 13:32:00,
2013-11-19 08:37:00,36.4,28.2,31.14,WNW,293,6.0,13.0,72,0.00,CLR,CLR,0.00,WeatherDisplay:10.37,2013-11-19 13:37:00,
2013-11-19 08:42:00,36.5,28.3,31.14,NW,309,1.0,7.0,72,0.00,CLR,CLR,0.00,WeatherDisplay:10.37,2013-11-19 13:42:00,
2013-11-19 08:47:00,36.4,28.2,31.14,WNW,287,3.0,8.0,72,0.00,CLR,CLR,0.00,WeatherDisplay:10.37,2013-11-19 13:47:00,
2013-11-19 08:52:00,36.5,28.3,31.15,WNW,283,1.0,9.0,72,0.00,CLR,CLR,0.00,WeatherDisplay:10.37,2013-11-19 13:52:00,
2013-11-19 08:57:00,36.5,27.6,31.15,NW,304,6.0,10.0,70,0.00,CLR,CLR,0.00,WeatherDisplay:10.37,2013-11-19 13:57:00,
2013-11-19 09:02:00,36.6,27.7,31.15,WNW,300,5.0,9.0,70,0.00,CLR,CLR,0.00,WeatherDisplay:10.37,2013-11-19 14:02:00,
2013-11-19 09:07:00,36.6,27.7,31.15,NW,304,6.0,12.0,70,0.00,CLR,CLR,0.00,WeatherDisplay:10.37,2013-11-19 14:07:00,
2013-11-19 09:12:00,36.6,27.8,31.15,WNW,302,3.0,9.0,70,0.00,CLR,CLR,0.00,WeatherDisplay:10.37,2013-11-19 14:12:00,
2013-11-19 09:17:00,36.7,27.8,31.16,WNW,299,3.0,10.0,70,0.00,CLR,CLR,0.00,WeatherDisplay:10.37,2013-11-19 14:17:00,
2013-11-19 09:22:00,36.7,28.2,31.16,WNW,301,6.0,9.0,71,0.00,CLR,CLR,0.00,WeatherDisplay:10.37,2013-11-19 14:22:00,
2013-11-19 09:27:00,36.8,27.6,31.16,NW,307,6.0,16.0,69,0.00,CLR,CLR,0.00,WeatherDisplay:10.37,2013-11-19 14:27:00,
2013-11-19 09:32:00,36.8,27.2,31.16,NW,314,5.0,12.0,68,0.00,CLR,CLR,0.00,WeatherDisplay:10.37,2013-11-19 14:32:00,
2013-11-19 09:37:00,36.8,27.2,31.16,NW,304,5.0,10.0,68,0.00,CLR,CLR,0.00,WeatherDisplay:10.37,2013-11-19 14:37:00,
2013-11-19 09:42:00,36.8,27.6,31.16,WNW,301,3.0,7.0,69,0.00,CLR,CLR,0.00,WeatherDisplay:10.37,2013-11-19 14:42:00,
2013-11-19 09:47:00,36.9,27.6,31.16,WNW,298,2.0,7.0,69,0.00,CLR,CLR,0.00,WeatherDisplay:10.37,2013-11-19 14:47:00,
2013-11-19 09:52:00,36.9,27.7,31.16,WNW,288,5.0,9.0,69,0.00,CLR,CLR,0.00,WeatherDisplay:10.37,2013-11-19 14:52:00,
2013-11-19 09:57:00,36.9,27.3,31.17,WNW,287,2.0,5.0,68,0.00,CLR,CLR,0.00,WeatherDisplay:10.37,2013-11-19 14:57:00,
2013-11-19 10:02:00,37.0,27.4,31.17,WNW,298,6.0,10.0,68,0.00,CLR,CLR,0.00,WeatherDisplay:10.37,2013-11-19 15:02:00,
2013-11-19 10:07:00,37.0,27.4,31.17,WNW,294,6.0,9.0,68,0.00,CLR,CLR,0.00,WeatherDisplay:10.37,2013-11-19 15:07:00,
2013-11-19 10:12:00,37.1,27.5,31.17,NW,306,3.0,6.0,68,0.00,CLR,CLR,0.00,WeatherDisplay:10.37,2013-11-19 15:12:00,
2013-11-19 10:17:00,37.1,27.5,31.17,WNW,301,5.0,9.0,68,0.00,CLR,CLR,0.00,WeatherDisplay:10.37,2013-11-19 15:17:00,
2013-11-19 10:22:00,37.1,27.5,31.18,WNW,291,1.0,7.0,68,0.00,CLR,CLR,0.00,WeatherDisplay:10.37,2013-11-19 15:22:00,
2013-11-19 10:27:00,37.1,27.5,31.18,WNW,301,8.0,14.0,68,0.00,CLR,CLR,0.00,WeatherDisplay:10.37,2013-11-19 15:27:00,
2013-11-19 10:32:00,37.0,27.1,31.18,NNW,329,6.0,12.0,67,0.00,CLR,CLR,0.00,WeatherDisplay:10.37,2013-11-19 15:32:00,
2013-11-19 10:47:00,37.0,26.3,31.19,North,358,7.0,12.0,65,0.00,CLR,CLR,0.00,WeatherDisplay:10.37,2013-11-19 15:47:00,
2013-11-19 10:52:00,37.0,26.3,31.19,NNW,329,6.0,10.0,65,0.00,CLR,CLR,0.00,WeatherDisplay:10.37,2013-11-19 15:52:00,
2013-11-19 11:12:00,37.2,26.5,31.19,NW,323,6.0,9.0,65,0.00,CLR,CLR,0.00,WeatherDisplay:10.37,2013-11-19 16:12:00,
2013-11-19 11:17:00,37.2,26.1,31.19,NNW,343,5.0,10.0,64,0.00,CLR,CLR,0.00,WeatherDisplay:10.37,2013-11-19 16:17:00,
2013-11-19 11:22:00,37.3,26.2,31.19,NNW,327,5.0,12.0,64,0.00,CLR,CLR,0.00,WeatherDisplay:10.37,2013-11-19 16:22:00,
2013-11-19 11:27:00,37.2,25.4,31.19,NW,321,5.0,14.0,62,0.00,CLR,CLR,0.00,WeatherDisplay:10.37,2013-11-19 16:27:00,
2013-11-19 11:32:00,37.4,25.6,31.19,NNW,331,2.0,9.0,62,0.00,CLR,CLR,0.00,WeatherDisplay:10.37,2013-11-19 16:32:00,
2013-11-19 11:37:00,37.7,26.6,31.19,NW,304,8.0,13.0,64,0.00,CLR,CLR,0.00,WeatherDisplay:10.37,2013-11-19 16:37:00,
2013-11-19 11:42:00,37.7,25.8,31.19,NW,315,5.0,10.0,62,0.00,CLR,CLR,0.00,WeatherDisplay:10.37,2013-11-19 16:42:00,
2013-11-19 11:47:00,37.7,25.8,31.19,NW,323,5.0,13.0,62,0.00,CLR,CLR,0.00,WeatherDisplay:10.37,2013-11-19 16:47:00,
2013-11-19 11:52:00,37.7,25.8,31.19,NW,323,2.0,8.0,62,0.00,CLR,CLR,0.00,WeatherDisplay:10.37,2013-11-19 16:52:00,
2013-11-19 11:57:00,37.8,25.9,31.19,NW,318,8.0,15.0,62,0.00,CLR,CLR,0.00,WeatherDisplay:10.37,2013-11-19 16:57:00,
2013-11-19 12:02:00,37.8,25.9,31.19,NNW,335,3.0,8.0,62,0.00,CLR,CLR,0.00,WeatherDisplay:10.37,2013-11-19 17:02:00,
2013-11-19 12:07:00,37.8,26.3,31.19,NNW,330,5.0,9.0,63,0.00,CLR,CLR,0.00,WeatherDisplay:10.37,2013-11-19 17:07:00,
2013-11-19 12:12:00,37.9,26.8,31.19,NW,308,5.0,8.0,64,0.00,CLR,CLR,0.00,WeatherDisplay:10.37,2013-11-19 17:12:00,
2013-11-19 12:17:00,37.9,26.8,31.19,NW,313,5.0,9.0,64,0.00,CLR,CLR,0.00,WeatherDisplay:10.37,2013-11-19 17:17:00,
2013-11-19 12:42:00,37.8,26.8,31.19,North,0,0.0,6.0,64,0.00,CLR,CLR,0.00,WeatherDisplay:10.37,2013-11-19 17:42:00,
2013-11-19 12:47:00,37.9,27.2,31.19,NNW,333,5.0,16.0,65,0.00,CLR,CLR,0.00,WeatherDisplay:10.37,2013-11-19 17:47:00,
2013-11-19 12:52:00,37.9,27.2,31.19,WNW,284,6.0,9.0,65,0.00,CLR,CLR,0.00,WeatherDisplay:10.37,2013-11-19 17:52:00,
2013-11-19 12:57:00,37.9,27.2,31.19,WNW,299,2.0,8.0,65,0.00,CLR,CLR,0.00,WeatherDisplay:10.37,2013-11-19 17:57:00,
2013-11-19 13:02:00,37.9,27.2,31.19,NNW,338,3.0,10.0,65,0.00,CLR,CLR,0.00,WeatherDisplay:10.37,2013-11-19 18:02:00,
2013-11-19 13:07:00,38.0,27.2,31.19,NNW,346,1.0,6.0,65,0.00,CLR,CLR,0.00,WeatherDisplay:10.37,2013-11-19 18:07:00,
2013-11-19 13:12:00,38.1,27.4,31.19,NNW,347,6.0,10.0,65,0.00,CLR,CLR,0.00,WeatherDisplay:10.37,2013-11-19 18:12:00,
2013-11-19 13:17:00,38.0,26.9,31.19,NW,309,5.0,12.0,64,0.00,CLR,CLR,0.00,WeatherDisplay:10.37,2013-11-19 18:17:00,
2013-11-19 13:22:00,38.0,26.9,31.19,WNW,291,5.0,9.0,64,0.00,CLR,CLR,0.00,WeatherDisplay:10.37,2013-11-19 18:22:00,
2013-11-19 13:27:00,38.1,27.0,31.19,WNW,292,5.0,9.0,64,0.00,CLR,CLR,0.00,WeatherDisplay:10.37,2013-11-19 18:27:00,
2013-11-19 13:32:00,38.1,27.0,31.19,WNW,295,5.0,9.0,64,0.00,CLR,CLR,0.00,WeatherDisplay:10.37,2013-11-19 18:32:00,
2013-11-19 13:52:00,38.2,27.1,31.19,NW,321,1.0,4.0,64,0.00,CLR,CLR,0.00,WeatherDisplay:10.37,2013-11-19 18:52:00,
2013-11-19 13:57:00,38.2,27.1,31.19,WNW,301,3.0,8.0,64,0.00,CLR,CLR,0.00,WeatherDisplay:10.37,2013-11-19 18:57:00,
2013-11-19 14:02:00,38.2,27.5,31.19,NNW,327,6.0,13.0,65,0.00,CLR,CLR,0.00,WeatherDisplay:10.37,2013-11-19 19:02:00,
2013-11-19 14:07:00,38.3,27.6,31.19,NNW,347,6.0,9.0,65,0.00,CLR,CLR,0.00,WeatherDisplay:10.37,2013-11-19 19:07:00,
2013-11-19 14:12:00,38.2,27.1,31.19,NNW,338,5.0,12.0,64,0.00,CLR,CLR,0.00,WeatherDisplay:10.37,2013-11-19 19:12:00,
2013-11-19 14:17:00,38.3,27.6,31.19,NW,311,3.0,8.0,65,0.00,CLR,CLR,0.00,WeatherDisplay:10.37,2013-11-19 19:17:00,
2013-11-19 14:22:00,38.3,27.6,31.19,WNW,292,3.0,7.0,65,0.00,CLR,CLR,0.00,WeatherDisplay:10.37,2013-11-19 19:22:00,
2013-11-19 14:32:00,38.3,27.9,31.19,WNW,299,0.0,6.0,66,0.00,CLR,CLR,0.00,WeatherDisplay:10.37,2013-11-19 19:32:00,
2013-11-19 14:37:00,38.3,27.6,31.19,NW,324,5.0,6.0,65,0.00,CLR,CLR,0.00,WeatherDisplay:10.37,2013-11-19 19:37:00,
2013-11-19 14:42:00,38.4,27.7,31.19,North,358,1.0,4.0,65,0.00,CLR,CLR,0.00,WeatherDisplay:10.37,2013-11-19 19:42:00,
2013-11-19 14:47:00,38.5,27.7,31.19,North,353,3.0,5.0,65,0.00,CLR,CLR,0.00,WeatherDisplay:10.37,2013-11-19 19:47:00,
2013-11-19 14:52:00,38.5,27.7,31.19,NW,323,1.0,5.0,65,0.00,CLR,CLR,0.00,WeatherDisplay:10.37,2013-11-19 19:52:00,
2013-11-19 14:57:00,38.6,27.8,31.19,NW,314,1.0,4.0,65,0.00,CLR,CLR,0.00,WeatherDisplay:10.37,2013-11-19 19:57:00,
2013-11-19 15:02:00,38.5,27.7,31.20,NNW,338,1.0,5.0,65,0.00,CLR,CLR,0.00,WeatherDisplay:10.37,2013-11-19 20:02:00,
2013-11-19 15:07:00,38.6,28.2,31.20,NNW,341,0.0,4.0,66,0.00,CLR,CLR,0.00,WeatherDisplay:10.37,2013-11-19 20:07:00,
2013-11-19 15:12:00,38.6,28.2,31.20,WNW,298,1.0,5.0,66,0.00,CLR,CLR,0.00,WeatherDisplay:10.37,2013-11-19 20:12:00,
2013-11-19 15:17:00,38.6,27.8,31.20,NW,312,5.0,9.0,65,0.00,CLR,CLR,0.00,WeatherDisplay:10.37,2013-11-19 20:17:00,
2013-11-19 15:22:00,38.5,27.7,31.20,NNW,346,1.0,6.0,65,0.00,CLR,CLR,0.00,WeatherDisplay:10.37,2013-11-19 20:22:00,
2013-11-19 15:27:00,38.4,27.3,31.20,North,7,1.0,8.0,64,0.00,CLR,CLR,0.00,WeatherDisplay:10.37,2013-11-19 20:27:00,
2013-11-19 15:32:00,38.4,28.0,31.20,North,3,2.0,7.0,66,0.00,CLR,CLR,0.00,WeatherDisplay:10.37,2013-11-19 20:32:00,
2013-11-19 15:37:00,38.4,28.0,31.21,NNW,333,2.0,4.0,66,0.00,CLR,CLR,0.00,WeatherDisplay:10.37,2013-11-19 20:37:00,
2013-11-19 15:42:00,38.4,27.7,31.21,NW,324,3.0,6.0,65,0.00,CLR,CLR,0.00,WeatherDisplay:10.37,2013-11-19 20:42:00,
2013-11-19 15:47:00,38.3,27.6,31.21,NNW,339,5.0,10.0,65,0.00,CLR,CLR,0.00,WeatherDisplay:10.37,2013-11-19 20:47:00,
2013-11-19 15:52:00,38.3,28.3,31.21,NW,320,3.0,6.0,67,0.00,CLR,CLR,0.00,WeatherDisplay:10.37,2013-11-19 20:52:00,
2013-11-19 15:57:00,38.2,28.6,31.21,NW,306,2.0,7.0,68,0.00,CLR,CLR,0.00,WeatherDisplay:10.37,2013-11-19 20:57:00,
2013-11-19 16:02:00,38.1,27.7,31.21,NNW,330,0.0,6.0,66,0.00,CLR,CLR,0.00,WeatherDisplay:10.37,2013-11-19 21:02:00,
2013-11-19 16:07:00,38.1,27.7,31.22,NNW,335,1.0,6.0,66,0.00,CLR,CLR,0.00,WeatherDisplay:10.37,2013-11-19 21:07:00,
2013-11-19 16:12:00,38.1,27.7,31.22,WNW,297,5.0,6.0,66,0.00,CLR,CLR,0.00,WeatherDisplay:10.37,2013-11-19 21:12:00,
2013-11-19 16:17:00,38.1,27.7,31.22,WNW,284,2.0,5.0,66,0.00,CLR,CLR,0.00,WeatherDisplay:10.37,2013-11-19 21:17:00,
2013-11-19 16:22:00,38.1,27.7,31.22,NW,311,3.0,5.0,66,0.00,CLR,CLR,0.00,WeatherDisplay:10.37,2013-11-19 21:22:00,
2013-11-19 16:27:00,38.1,27.7,31.22,NNW,333,0.0,0.0,66,0.00,CLR,CLR,0.00,WeatherDisplay:10.37,2013-11-19 21:27:00,
2013-11-19 16:32:00,38.0,27.7,31.22,NNW,336,2.0,3.0,66,0.00,CLR,CLR,0.00,WeatherDisplay:10.37,2013-11-19 21:32:00,
2013-11-19 16:37:00,38.0,27.3,31.22,NNW,335,0.0,3.0,65,0.00,CLR,CLR,0.00,WeatherDisplay:10.37,2013-11-19 21:37:00,
2013-11-19 16:42:00,38.0,27.6,31.22,NNW,335,0.0,0.0,66,0.00,CLR,CLR,0.00,WeatherDisplay:10.37,2013-11-19 21:42:00,
2013-11-19 16:47:00,38.0,27.6,31.22,NNW,329,0.0,4.0,66,0.00,CLR,CLR,0.00,WeatherDisplay:10.37,2013-11-19 21:47:00,
2013-11-19 16:52:00,38.0,27.6,31.22,WNW,289,0.0,4.0,66,0.00,CLR,CLR,0.00,WeatherDisplay:10.37,2013-11-19 21:52:00,
2013-11-19 16:57:00,38.0,28.0,31.22,WNW,288,0.0,4.0,67,0.00,CLR,CLR,0.00,WeatherDisplay:10.37,2013-11-19 21:57:00,
2013-11-19 17:02:00,37.9,27.9,31.22,NW,312,0.0,2.0,67,0.00,CLR,CLR,0.00,WeatherDisplay:10.37,2013-11-19 22:02:00,
2013-11-19 17:07:00,37.9,27.9,31.23,NW,310,1.0,4.0,67,0.00,CLR,CLR,0.00,WeatherDisplay:10.37,2013-11-19 22:07:00,
2013-11-19 17:12:00,37.8,28.2,31.23,NW,312,0.0,4.0,68,0.00,CLR,CLR,0.00,WeatherDisplay:10.37,2013-11-19 22:12:00,
2013-11-19 17:17:00,37.7,27.8,31.23,NW,317,0.0,0.0,67,0.00,CLR,CLR,0.00,WeatherDisplay:10.37,2013-11-19 22:17:00,
2013-11-19 17:22:00,37.7,28.1,31.23,NW,317,0.0,0.0,68,0.00,CLR,CLR,0.00,WeatherDisplay:10.37,2013-11-19 22:22:00,
2013-11-19 17:27:00,37.7,28.4,31.23,NW,317,2.0,3.0,69,0.00,CLR,CLR,0.00,WeatherDisplay:10.37,2013-11-19 22:27:00,
2013-11-19 17:32:00,37.6,28.0,31.23,NW,317,0.0,1.0,68,0.00,CLR,CLR,0.00,WeatherDisplay:10.37,2013-11-19 22:32:00,
2013-11-19 17:37:00,37.6,27.9,31.24,NW,318,0.0,3.0,68,0.00,CLR,CLR,0.00,WeatherDisplay:10.37,2013-11-19 22:37:00,
2013-11-19 17:42:00,37.5,27.9,31.24,NW,319,0.0,0.0,68,0.00,CLR,CLR,0.00,WeatherDisplay:10.37,2013-11-19 22:42:00,
2013-11-19 17:47:00,37.5,28.2,31.24,NW,319,0.0,0.0,69,0.00,CLR,CLR,0.00,WeatherDisplay:10.37,2013-11-19 22:47:00,
2013-11-19 17:52:00,37.4,28.2,31.24,NW,319,0.0,0.0,69,0.00,CLR,CLR,0.00,WeatherDisplay:10.37,2013-11-19 22:52:00,
2013-11-19 17:57:00,37.4,28.2,31.24,NW,319,0.0,0.0,69,0.00,CLR,CLR,0.00,WeatherDisplay:10.37,2013-11-19 22:57:00,
2013-11-19 18:02:00,37.3,28.1,31.24,NW,321,0.0,3.0,69,0.00,CLR,CLR,0.00,WeatherDisplay:10.37,2013-11-19 23:02:00,
2013-11-19 18:07:00,37.3,28.4,31.24,NNW,336,0.0,1.0,70,0.00,CLR,CLR,0.00,WeatherDisplay:10.37,2013-11-19 23:07:00,
2013-11-19 18:12:00,37.3,28.4,31.25,NNW,337,0.0,4.0,70,0.00,CLR,CLR,0.00,WeatherDisplay:10.37,2013-11-19 23:12:00,
2013-11-19 18:17:00,37.2,28.4,31.25,NNW,339,0.0,3.0,70,0.00,CLR,CLR,0.00,WeatherDisplay:10.37,2013-11-19 23:17:00,
2013-11-19 18:22:00,37.2,28.7,31.25,North,2,0.0,5.0,71,0.00,CLR,CLR,0.00,WeatherDisplay:10.37,2013-11-19 23:22:00,
2013-11-19 18:27:00,37.1,28.2,31.25,North,6,0.0,3.0,70,0.00,CLR,CLR,0.00,WeatherDisplay:10.37,2013-11-19 23:27:00,
2013-11-19 18:32:00,36.9,28.0,31.25,North,9,0.0,0.0,70,0.00,CLR,CLR,0.00,WeatherDisplay:10.37,2013-11-19 23:32:00,
2013-11-19 18:37:00,36.8,28.2,31.25,North,9,0.0,0.0,71,0.00,CLR,CLR,0.00,WeatherDisplay:10.37,2013-11-19 23:37:00,
2013-11-19 18:42:00,36.5,28.0,31.25,North,9,0.0,0.0,71,0.00,CLR,CLR,0.00,WeatherDisplay:10.37,2013-11-19 23:42:00,
2013-11-19 18:47:00,36.2,28.0,31.26,North,9,0.0,0.0,72,0.00,CLR,CLR,0.00,WeatherDisplay:10.37,2013-11-19 23:47:00,
2013-11-19 18:52:00,35.8,28.0,31.26,North,9,0.0,0.0,73,0.00,CLR,CLR,0.00,WeatherDisplay:10.37,2013-11-19 23:52:00,
2013-11-19 19:02:00,35.0,27.9,31.26,North,9,0.0,0.0,75,0.00,CLR,CLR,0.00,WeatherDisplay:10.37,2013-11-20 00:02:00,
2013-11-19 19:07:00,34.6,27.8,31.26,North,9,0.0,0.0,76,0.00,CLR,CLR,0.00,WeatherDisplay:10.37,2013-11-20 00:07:00,
2013-11-19 19:12:00,34.2,27.7,31.26,North,9,0.0,0.0,77,0.00,CLR,CLR,0.00,WeatherDisplay:10.37,2013-11-20 00:12:00,
2013-11-19 19:17:00,33.9,28.1,31.26,North,9,0.0,0.0,79,0.00,CLR,CLR,0.00,WeatherDisplay:10.37,2013-11-20 00:17:00,
2013-11-19 19:22:00,33.6,27.8,31.27,North,9,0.0,0.0,79,0.00,CLR,CLR,0.00,WeatherDisplay:10.37,2013-11-20 00:22:00,
2013-11-19 19:27:00,33.3,27.5,31.27,North,9,0.0,0.0,79,0.00,CLR,CLR,0.00,WeatherDisplay:10.37,2013-11-20 00:27:00,
2013-11-19 19:32:00,32.9,27.7,31.27,North,9,0.0,0.0,81,0.00,CLR,CLR,0.00,WeatherDisplay:10.37,2013-11-20 00:32:00,
2013-11-19 19:37:00,32.6,27.7,31.27,North,9,0.0,0.0,82,0.00,CLR,CLR,0.00,WeatherDisplay:10.37,2013-11-20 00:37:00,
2013-11-19 19:42:00,32.3,27.4,31.27,North,9,0.0,0.0,82,0.00,CLR,CLR,0.00,WeatherDisplay:10.37,2013-11-20 00:42:00,
2013-11-19 19:47:00,32.1,27.5,31.27,North,9,0.0,0.0,83,0.00,CLR,CLR,0.00,WeatherDisplay:10.37,2013-11-20 00:47:00,
2013-11-19 19:52:00,31.9,27.3,31.27,North,9,0.0,0.0,83,0.00,CLR,CLR,0.00,WeatherDisplay:10.37,2013-11-20 00:52:00,
2013-11-19 19:57:00,31.7,27.4,31.27,North,9,0.0,0.0,84,0.00,CLR,CLR,0.00,WeatherDisplay:10.37,2013-11-20 00:57:00,
2013-11-19 20:02:00,31.4,27.4,31.27,North,9,0.0,0.0,85,0.00,CLR,CLR,0.00,WeatherDisplay:10.37,2013-11-20 01:02:00,
2013-11-19 20:07:00,31.0,27.1,31.27,North,9,0.0,0.0,85,0.00,CLR,CLR,0.00,WeatherDisplay:10.37,2013-11-20 01:07:00,
2013-11-19 20:17:00,30.7,27.3,31.28,North,9,0.0,0.0,87,0.00,CLR,CLR,0.00,WeatherDisplay:10.37,2013-11-20 01:17:00,
2013-11-19 20:22:00,30.5,27.1,31.28,North,9,0.0,0.0,87,0.00,CLR,CLR,0.00,WeatherDisplay:10.37,2013-11-20 01:22:00,
2013-11-19 20:32:00,30.1,27.0,31.28,North,9,0.0,0.0,88,0.00,CLR,CLR,0.00,WeatherDisplay:10.37,2013-11-20 01:32:00,
2013-11-19 20:37:00,30.0,26.9,31.28,North,9,0.0,0.0,88,0.00,CLR,CLR,0.00,WeatherDisplay:10.37,2013-11-20 01:37:00,
2013-11-19 20:42:00,29.8,26.7,31.28,North,9,0.0,0.0,88,0.00,CLR,CLR,0.00,WeatherDisplay:10.37,2013-11-20 01:42:00,
2013-11-19 20:47:00,29.7,26.6,31.29,North,9,0.0,0.0,88,0.00,CLR,CLR,0.00,WeatherDisplay:10.37,2013-11-20 01:47:00,
2013-11-19 20:52:00,29.5,26.7,31.29,North,9,0.0,0.0,89,0.00,CLR,CLR,0.00,WeatherDisplay:10.37,2013-11-20 01:52:00,
2013-11-19 20:57:00,29.4,26.5,31.29,North,9,0.0,0.0,89,0.00,CLR,CLR,0.00,WeatherDisplay:10.37,2013-11-20 01:57:00,
2013-11-19 21:07:00,29.1,26.5,31.29,North,9,0.0,0.0,90,0.00,CLR,CLR,0.00,WeatherDisplay:10.37,2013-11-20 02:07:00,
2013-11-19 21:12:00,29.0,26.4,31.29,North,9,0.0,0.0,90,0.00,CLR,CLR,0.00,WeatherDisplay:10.37,2013-11-20 02:12:00,
2013-11-19 21:17:00,28.8,26.2,31.29,North,9,0.0,0.0,90,0.00,CLR,CLR,0.00,WeatherDisplay:10.37,2013-11-20 02:17:00,
2013-11-19 21:22:00,28.8,26.2,31.29,North,9,0.0,0.0,90,0.00,CLR,CLR,0.00,WeatherDisplay:10.37,2013-11-20 02:22:00,
2013-11-19 21:27:00,28.7,26.1,31.30,North,9,0.0,0.0,90,0.00,CLR,CLR,0.00,WeatherDisplay:10.37,2013-11-20 02:27:00,
2013-11-19 21:32:00,28.7,26.4,31.30,North,9,0.0,0.0,91,0.00,CLR,CLR,0.00,WeatherDisplay:10.37,2013-11-20 02:32:00,
2013-11-19 21:37:00,28.6,26.3,31.29,North,9,0.0,0.0,91,0.00,CLR,CLR,0.00,WeatherDisplay:10.37,2013-11-20 02:37:00,
2013-11-19 21:42:00,28.5,26.2,31.30,North,9,0.0,0.0,91,0.00,CLR,CLR,0.00,WeatherDisplay:10.37,2013-11-20 02:42:00,
2013-11-19 21:52:00,28.3,26.0,31.30,North,9,0.0,0.0,91,0.00,CLR,CLR,0.00,WeatherDisplay:10.37,2013-11-20 02:52:00,
2013-11-19 21:57:00,28.1,25.8,31.30,North,9,0.0,0.0,91,0.00,CLR,CLR,0.00,WeatherDisplay:10.37,2013-11-20 02:57:00,
2013-11-19 22:02:00,27.9,25.6,31.30,North,9,0.0,0.0,91,0.00,CLR,CLR,0.00,WeatherDisplay:10.37,2013-11-20 03:02:00,
2013-11-19 22:07:00,27.7,25.4,31.30,North,9,0.0,0.0,91,0.00,CLR,CLR,0.00,WeatherDisplay:10.37,2013-11-20 03:07:00,
2013-11-19 22:12:00,27.7,25.4,31.30,North,9,0.0,0.0,91,0.00,CLR,CLR,0.00,WeatherDisplay:10.37,2013-11-20 03:12:00,
2013-11-19 22:17:00,27.6,25.6,31.30,North,9,0.0,0.0,92,0.00,CLR,CLR,0.00,WeatherDisplay:10.37,2013-11-20 03:17:00,
2013-11-19 22:22:00,27.5,25.5,31.30,North,9,0.0,0.0,92,0.00,CLR,CLR,0.00,WeatherDisplay:10.37,2013-11-20 03:22:00,
2013-11-19 22:27:00,27.4,25.4,31.30,North,9,0.0,0.0,92,0.00,CLR,CLR,0.00,WeatherDisplay:10.37,2013-11-20 03:27:00,
2013-11-19 22:32:00,27.3,25.3,31.30,North,9,0.0,0.0,92,0.00,CLR,CLR,0.00,WeatherDisplay:10.37,2013-11-20 03:32:00,
2013-11-19 22:37:00,27.3,25.3,31.30,North,9,0.0,0.0,92,0.00,CLR,CLR,0.00,WeatherDisplay:10.37,2013-11-20 03:37:00,
2013-11-19 22:42:00,27.2,25.2,31.30,North,9,0.0,0.0,92,0.00,CLR,CLR,0.00,WeatherDisplay:10.37,2013-11-20 03:42:00,
2013-11-19 22:47:00,27.1,25.1,31.30,North,9,0.0,0.0,92,0.00,CLR,CLR,0.00,WeatherDisplay:10.37,2013-11-20 03:47:00,
2013-11-19 22:52:00,27.1,25.3,31.30,North,9,0.0,0.0,93,0.00,CLR,CLR,0.00,WeatherDisplay:10.37,2013-11-20 03:52:00,
2013-11-19 22:57:00,27.0,25.0,31.30,North,9,0.0,0.0,92,0.00,CLR,CLR,0.00,WeatherDisplay:10.37,2013-11-20 03:57:00,
2013-11-19 23:02:00,26.9,24.9,31.30,North,9,0.0,0.0,92,0.00,CLR,CLR,0.00,WeatherDisplay:10.37,2013-11-20 04:02:00,
2013-11-19 23:07:00,26.9,24.9,31.30,North,9,0.0,0.0,92,0.00,CLR,CLR,0.00,WeatherDisplay:10.37,2013-11-20 04:07:00,
2013-11-19 23:12:00,26.8,25.0,31.31,North,9,0.0,0.0,93,0.00,CLR,CLR,0.00,WeatherDisplay:10.37,2013-11-20 04:12:00,
2013-11-19 23:17:00,26.7,25.0,31.31,North,9,0.0,0.0,93,0.00,CLR,CLR,0.00,WeatherDisplay:10.37,2013-11-20 04:17:00,
2013-11-19 23:22:00,26.7,24.9,31.31,North,9,0.0,0.0,93,0.00,CLR,CLR,0.00,WeatherDisplay:10.37,2013-11-20 04:22:00,
2013-11-19 23:27:00,26.7,24.9,31.31,North,9,0.0,0.0,93,0.00,CLR,CLR,0.00,WeatherDisplay:10.37,2013-11-20 04:27:00,
2013-11-19 23:32:00,26.6,24.8,31.31,North,9,0.0,0.0,93,0.00,CLR,CLR,0.00,WeatherDisplay:10.37,2013-11-20 04:32:00,
2013-11-19 23:37:00,26.4,24.7,31.31,North,9,0.0,0.0,93,0.00,CLR,CLR,0.00,WeatherDisplay:10.37,2013-11-20 04:37:00,
2013-11-19 23:42:00,26.3,24.6,31.31,North,9,0.0,0.0,93,0.00,CLR,CLR,0.00,WeatherDisplay:10.37,2013-11-20 04:42:00,
2013-11-19 23:47:00,26.3,24.6,31.31,North,9,0.0,0.0,93,0.00,CLR,CLR,0.00,WeatherDisplay:10.37,2013-11-20 04:47:00,
2013-11-19 23:52:00,26.3,24.6,31.31,North,9,0.0,0.0,93,0.00,CLR,CLR,0.00,WeatherDisplay:10.37,2013-11-20 04:52:00,
2013-11-19 23:57:00,26.3,24.6,31.31,North,9,0.0,0.0,93,0.00,CLR,CLR,0.00,WeatherDisplay:10.37,2013-11-20 04:57:00,